createdAt,value
2023-11-07T00:04:05.788Z,19.5
2023-11-07T00:10:12.307Z,19.5
2023-11-07T00:16:18.696Z,19.5
2023-11-07T00:22:24.868Z,19.5
2023-11-07T00:28:31.297Z,19.4
2023-11-07T00:34:37.083Z,19.4
2023-11-07T00:40:42.860Z,19.4
2023-11-07T00:46:48.682Z,19.4
2023-11-07T00:52:54.373Z,19.4
2023-11-07T00:59:00.025Z,19.3
2023-11-07T01:05:06.358Z,19.3
2023-11-07T01:11:12.606Z,19.3
2023-11-07T01:17:18.524Z,19.3
2023-11-07T01:23:24.919Z,19.3
2023-11-07T01:29:31.156Z,19.3
2023-11-07T01:35:36.882Z,19.3
2023-11-07T01:41:43.210Z,19.3
2023-11-07T01:47:49.132Z,19.3
2023-11-07T01:53:55.025Z,19.3
2023-11-07T02:00:01.508Z,19.3
2023-11-07T02:06:07.488Z,19.3
2023-11-07T02:12:13.457Z,19.3
2023-11-07T02:18:19.833Z,19.2
2023-11-07T02:24:25.826Z,19.2
2023-11-07T02:30:31.961Z,19.2
2023-11-07T02:36:38.152Z,19.2
2023-11-07T02:42:43.821Z,19.2
2023-11-07T02:48:49.841Z,19.2
2023-11-07T02:54:56.151Z,19.1
2023-11-07T03:01:02.075Z,19.1
2023-11-07T03:07:07.942Z,19.1
2023-11-07T03:13:13.897Z,19.1
2023-11-07T03:19:19.901Z,19.1
2023-11-07T03:25:26.215Z,19.1
2023-11-07T03:31:32.420Z,19
2023-11-07T03:37:38.587Z,19
2023-11-07T03:43:44.660Z,19
2023-11-07T03:49:51.168Z,19
2023-11-07T03:55:56.802Z,19
2023-11-07T04:02:02.393Z,19
2023-11-07T04:08:08.157Z,19
2023-11-07T04:14:14.492Z,19
2023-11-07T04:20:20.681Z,19
2023-11-07T04:26:26.055Z,19
2023-11-07T04:32:32.042Z,19
2023-11-07T04:38:38.483Z,19
2023-11-07T04:44:44.454Z,19
2023-11-07T04:50:50.392Z,19
2023-11-07T04:56:57.822Z,19.1
2023-11-07T05:03:04.038Z,19
2023-11-07T05:09:10.015Z,19
2023-11-07T05:15:15.653Z,19.1
2023-11-07T05:21:21.945Z,19.1
2023-11-07T05:27:27.726Z,19
2023-11-07T05:33:34.017Z,19
2023-11-07T05:39:41.199Z,19
2023-11-07T05:45:47.329Z,19.2
2023-11-07T05:51:53.515Z,19.1
2023-11-07T05:58:00.105Z,19.1
2023-11-07T06:04:06.335Z,19.1
2023-11-07T06:10:12.272Z,19.1
2023-11-07T06:16:18.250Z,19
2023-11-07T06:22:24.432Z,19
2023-11-07T06:28:30.417Z,19
2023-11-07T06:34:36.448Z,19
2023-11-07T06:40:42.588Z,19
2023-11-07T06:46:48.817Z,19
2023-11-07T06:52:54.959Z,19
2023-11-07T06:59:00.536Z,19
2023-11-07T07:05:06.755Z,19.1
2023-11-07T07:11:12.975Z,19.1
2023-11-07T07:17:18.759Z,19.1
2023-11-07T07:23:25.077Z,19.1
2023-11-07T07:29:31.340Z,19.1
2023-11-07T07:35:37.309Z,19.1
2023-11-07T07:41:43.862Z,19.1
2023-11-07T07:47:50.388Z,19.1
2023-11-07T07:53:57.044Z,19.1
2023-11-07T08:00:03.277Z,19.1
2023-11-07T08:06:09.274Z,19.1
2023-11-07T08:12:15.854Z,19.1
2023-11-07T08:18:21.868Z,19.1
2023-11-07T08:24:28.010Z,19.1
2023-11-07T08:30:33.971Z,19.1
2023-11-07T08:36:40.920Z,19.1
2023-11-07T08:43:11.753Z,19.1
2023-11-07T08:49:17.777Z,19.1
2023-11-07T08:55:24.533Z,19
2023-11-07T09:01:30.516Z,19
2023-11-07T09:07:36.358Z,19.1
2023-11-07T09:13:42.684Z,19.1
2023-11-07T09:19:48.670Z,19.1
2023-11-07T09:25:54.644Z,19.1
2023-11-07T09:32:00.684Z,19.1
2023-11-07T09:38:06.616Z,19.1
2023-11-07T09:44:12.650Z,19.1
2023-11-07T09:50:18.789Z,19.1
2023-11-07T09:56:25.592Z,19.1
2023-11-07T10:02:32.129Z,19.1
2023-11-07T10:08:38.642Z,19.1
2023-11-07T10:14:44.990Z,19.2
2023-11-07T10:20:50.988Z,19.2
2023-11-07T10:26:57.370Z,19.2
2023-11-07T10:33:03.789Z,19.2
2023-11-07T10:39:10.035Z,19.2
2023-11-07T10:45:16.368Z,19.2
2023-11-07T10:51:22.947Z,19.1
2023-11-07T10:57:28.749Z,19.1
2023-11-07T11:03:34.525Z,19.1
2023-11-07T11:09:41.070Z,19.1
2023-11-07T11:15:47.658Z,19.1
2023-11-07T11:21:53.647Z,19.1
2023-11-07T11:27:59.429Z,19.1
2023-11-07T11:34:05.257Z,19.1
2023-11-07T11:40:11.201Z,19.1
2023-11-07T11:46:17.423Z,19.1
2023-11-07T11:52:23.787Z,19.1
2023-11-07T11:58:29.542Z,19.1
2023-11-07T12:04:35.337Z,19.1
2023-11-07T12:10:41.923Z,19.1
2023-11-07T12:16:47.811Z,19.1
2023-11-07T12:22:53.534Z,19.1
2023-11-07T12:28:59.656Z,19.2
2023-11-07T12:35:05.707Z,19.2
2023-11-07T12:41:11.238Z,19.2
2023-11-07T12:47:17.824Z,19.2
2023-11-07T12:53:24.208Z,19.2
2023-11-07T12:59:30.282Z,19.3
2023-11-07T13:05:35.846Z,19.2
2023-11-07T13:11:42.159Z,19.2
2023-11-07T13:17:48.367Z,19.2
2023-11-07T13:23:54.910Z,19.2
2023-11-07T13:30:01.163Z,19.2
2023-11-07T13:36:07.550Z,19.2
2023-11-07T13:42:13.558Z,19.2
2023-11-07T13:48:19.594Z,19.2
2023-11-07T13:54:26.311Z,19.2
2023-11-07T14:00:32.488Z,19.2
2023-11-07T14:06:38.896Z,19.2
2023-11-07T14:12:44.714Z,19.2
2023-11-07T14:18:51.151Z,19.2
2023-11-07T14:24:58.061Z,19.2
2023-11-07T14:31:04.263Z,19.2
2023-11-07T14:37:10.875Z,19.1
2023-11-07T14:43:18.217Z,19.2
2023-11-07T14:49:27.027Z,19.2
2023-11-07T14:55:33.307Z,19.1
2023-11-07T15:01:40.130Z,19.1
2023-11-07T15:07:46.527Z,19.2
2023-11-07T15:13:52.483Z,19.2
2023-11-07T15:19:58.464Z,19.2
2023-11-07T15:26:04.451Z,19.2
2023-11-07T15:32:10.645Z,19.2
2023-11-07T15:38:16.817Z,19.2
2023-11-07T15:44:22.998Z,19.2
2023-11-07T15:50:29.407Z,19.3
2023-11-07T15:56:35.177Z,19.3
2023-11-07T16:02:41.161Z,19.2
2023-11-07T16:08:47.567Z,19.2
2023-11-07T16:14:53.552Z,19.2
2023-11-07T16:20:59.330Z,19.2
2023-11-07T16:27:06.127Z,19.1
2023-11-07T16:33:12.777Z,19.1
2023-11-07T16:39:19.175Z,19.1
2023-11-07T16:45:25.795Z,19.1
2023-11-07T16:51:32.139Z,19.1
2023-11-07T16:57:38.478Z,19.1
2023-11-07T17:03:44.784Z,19.1
2023-11-07T17:09:51.336Z,19.1
2023-11-07T17:15:57.242Z,19.1
2023-11-07T17:22:03.229Z,19.1
2023-11-07T17:28:09.022Z,19.1
2023-11-07T17:34:15.085Z,19.1
2023-11-07T17:40:21.595Z,19.1
2023-11-07T17:46:27.383Z,19.1
2023-11-07T17:52:33.437Z,19.1
2023-11-07T17:58:39.534Z,19.2
2023-11-07T18:04:45.383Z,19.2
2023-11-07T18:10:51.360Z,19.2
2023-11-07T18:16:56.541Z,19.2
2023-11-07T18:23:02.860Z,19.3
2023-11-07T18:29:08.626Z,19.4
2023-11-07T18:35:14.081Z,19.5
2023-11-07T18:41:19.577Z,19.2
2023-11-07T18:47:25.561Z,19.2
2023-11-07T18:53:33.977Z,19.2
2023-11-07T18:59:50.911Z,19.2
2023-11-07T19:05:56.498Z,19.3
2023-11-07T19:12:03.241Z,19.7
2023-11-07T19:18:09.303Z,19.9
2023-11-07T19:24:17.628Z,20
2023-11-07T19:30:23.714Z,20.1
2023-11-07T19:36:30.059Z,20.3
2023-11-07T19:42:36.237Z,19.6
2023-11-07T19:48:41.666Z,19.7
2023-11-07T19:54:47.549Z,19.5
2023-11-07T20:00:53.563Z,19.5
2023-11-07T20:06:58.960Z,19.6
2023-11-07T20:13:04.553Z,19.5
2023-11-07T20:19:11.537Z,19.5
2023-11-07T20:25:19.309Z,19.4
2023-11-07T20:31:25.914Z,19.5
2023-11-07T20:37:32.924Z,19.5
2023-11-07T20:43:39.733Z,19.5
2023-11-07T20:49:48.765Z,19.6
2023-11-07T20:55:56.252Z,19.6
2023-11-07T21:02:01.826Z,19.7
2023-11-07T21:08:07.550Z,19.6
2023-11-07T21:14:35.541Z,19.6
2023-11-07T21:21:07.144Z,19.6
2023-11-07T21:33:54.145Z,19.6
2023-11-07T21:40:00.532Z,19.2
2023-11-07T21:46:06.402Z,19.3
2023-11-07T21:52:12.233Z,19.4
2023-11-07T21:58:17.801Z,19.4
2023-11-07T22:04:31.334Z,19.4
2023-11-07T22:10:40.804Z,19.5
2023-11-07T22:16:46.033Z,19.5
2023-11-07T22:22:55.612Z,19.4
2023-11-07T22:29:01.849Z,19.4
2023-11-07T22:44:02.779Z,19.4
2023-11-07T22:50:16.778Z,19.4
2023-11-07T22:56:32.524Z,19.4
2023-11-07T23:02:45.395Z,19.3
2023-11-07T23:08:56.880Z,19.3
2023-11-07T23:15:14.239Z,19.3
2023-11-07T23:21:28.145Z,19.3
2023-11-07T23:27:34.856Z,19.3
2023-11-07T23:33:40.656Z,19.3
2023-11-07T23:39:46.987Z,19.3
2023-11-07T23:45:51.908Z,19.3
2023-11-07T23:51:57.156Z,19.3
2023-11-07T23:58:02.891Z,19.3
